createdAt,value
2023-05-17T00:03:38.693Z,64.40
2023-05-17T00:07:20.525Z,64.80
2023-05-17T00:11:02.511Z,65.80
2023-05-17T00:14:44.509Z,66.20
2023-05-17T00:18:26.835Z,66.50
2023-05-17T00:22:08.796Z,67.10
2023-05-17T00:25:51.223Z,67.30
2023-05-17T00:29:33.185Z,67.90
2023-05-17T00:33:15.070Z,68.10
2023-05-17T00:36:56.962Z,68.20
2023-05-17T00:40:38.904Z,68.00
2023-05-17T00:44:20.818Z,67.90
2023-05-17T00:48:02.906Z,68.60
2023-05-17T00:51:45.215Z,68.50
2023-05-17T00:55:27.778Z,68.70
2023-05-17T00:59:13.011Z,69.10
2023-05-17T01:02:55.066Z,69.50
2023-05-17T01:06:37.569Z,69.60
2023-05-17T01:10:20.022Z,70.00
2023-05-17T01:14:13.784Z,69.70
2023-05-17T01:18:16.458Z,69.90
2023-05-17T01:22:21.116Z,70.10
2023-05-17T01:26:31.015Z,70.30
2023-05-17T01:30:15.591Z,70.90
2023-05-17T01:33:58.827Z,71.20
2023-05-17T01:37:40.899Z,71.40
2023-05-17T01:41:23.039Z,71.60
2023-05-17T01:45:26.826Z,71.90
2023-05-17T01:49:25.421Z,71.90
2023-05-17T01:53:22.260Z,71.70
2023-05-17T01:57:07.764Z,71.80
2023-05-17T02:00:52.597Z,72.00
2023-05-17T02:04:34.927Z,72.00
2023-05-17T02:08:16.848Z,72.00
2023-05-17T02:11:58.762Z,72.20
2023-05-17T02:15:40.698Z,72.30
2023-05-17T02:19:22.649Z,72.50
2023-05-17T02:23:04.670Z,72.70
2023-05-17T02:26:47.352Z,72.90
2023-05-17T02:30:29.192Z,73.30
2023-05-17T02:34:11.312Z,73.40
2023-05-17T02:37:53.229Z,73.60
2023-05-17T02:41:35.117Z,73.70
2023-05-17T02:45:17.139Z,73.70
2023-05-17T02:48:59.319Z,73.80
2023-05-17T02:52:41.817Z,74.10
2023-05-17T02:56:23.699Z,74.10
2023-05-17T03:00:06.889Z,74.30
2023-05-17T03:03:49.254Z,74.40
2023-05-17T03:07:31.324Z,74.50
2023-05-17T03:11:13.533Z,74.70
2023-05-17T03:14:55.394Z,74.50
2023-05-17T03:18:37.482Z,74.80
2023-05-17T03:22:19.923Z,75.10
2023-05-17T03:26:01.927Z,75.30
2023-05-17T03:29:43.759Z,75.50
2023-05-17T03:33:26.045Z,75.50
2023-05-17T03:37:08.528Z,75.50
2023-05-17T03:40:52.166Z,76.00
2023-05-17T03:44:34.175Z,76.60
2023-05-17T03:48:16.069Z,77.10
2023-05-17T03:51:57.970Z,77.50
2023-05-17T03:55:40.062Z,77.90
2023-05-17T03:59:21.956Z,78.40
2023-05-17T04:03:03.984Z,78.40
2023-05-17T04:06:45.953Z,78.70
2023-05-17T04:10:27.839Z,78.90
2023-05-17T04:14:09.750Z,79.30
2023-05-17T04:17:51.820Z,79.30
2023-05-17T04:21:33.737Z,79.30
2023-05-17T04:25:16.182Z,79.30
2023-05-17T04:28:58.204Z,79.60
2023-05-17T04:32:40.228Z,79.60
2023-05-17T04:36:22.294Z,80.00
2023-05-17T04:40:04.903Z,79.40
2023-05-17T04:43:47.125Z,79.90
2023-05-17T04:47:29.076Z,80.20
2023-05-17T04:51:11.508Z,80.40
2023-05-17T04:54:53.423Z,80.40
2023-05-17T04:58:35.284Z,80.90
2023-05-17T05:02:17.146Z,81.00
2023-05-17T05:05:59.018Z,81.30
2023-05-17T05:09:41.011Z,81.50
2023-05-17T05:13:23.252Z,81.70
2023-05-17T05:17:05.418Z,81.80
2023-05-17T05:20:49.419Z,82.20
2023-05-17T05:24:31.406Z,82.50
2023-05-17T05:28:13.305Z,82.50
2023-05-17T05:31:55.189Z,82.60
2023-05-17T05:35:37.144Z,82.90
2023-05-17T05:39:18.989Z,83.10
2023-05-17T05:43:00.876Z,83.20
2023-05-17T05:46:42.820Z,83.40
2023-05-17T05:50:24.764Z,83.60
2023-05-17T05:54:06.646Z,83.90
2023-05-17T05:57:48.513Z,84.20
2023-05-17T06:01:30.407Z,84.10
2023-05-17T06:05:12.332Z,84.20
2023-05-17T06:08:54.260Z,84.50
2023-05-17T06:12:36.089Z,84.80
2023-05-17T06:16:18.050Z,84.80
2023-05-17T06:20:00.013Z,84.50
2023-05-17T06:23:41.964Z,84.40
2023-05-17T06:27:23.797Z,84.20
2023-05-17T06:31:05.739Z,83.90
2023-05-17T06:34:50.186Z,83.80
2023-05-17T06:38:32.200Z,83.50
2023-05-17T06:42:14.028Z,83.60
2023-05-17T06:45:55.866Z,82.80
2023-05-17T06:49:38.283Z,81.20
2023-05-17T06:53:20.405Z,80.40
2023-05-17T06:57:03.133Z,78.70
2023-05-17T07:00:45.023Z,77.10
2023-05-17T07:04:27.450Z,75.20
2023-05-17T07:08:09.417Z,73.30
2023-05-17T07:11:51.268Z,71.20
2023-05-17T07:15:33.136Z,70.60
2023-05-17T07:19:15.391Z,69.50
2023-05-17T07:22:59.943Z,68.90
2023-05-17T07:26:41.759Z,67.20
2023-05-17T07:30:24.889Z,67.10
2023-05-17T07:34:06.813Z,66.60
2023-05-17T07:37:48.742Z,66.40
2023-05-17T07:41:31.758Z,65.20
2023-05-17T07:45:13.685Z,64.90
2023-05-17T07:48:58.312Z,64.80
2023-05-17T07:52:40.908Z,64.40
2023-05-17T07:56:22.807Z,64.60
2023-05-17T08:00:06.486Z,64.40
2023-05-17T08:03:48.608Z,64.20
2023-05-17T08:07:30.587Z,63.10
2023-05-17T08:11:13.354Z,62.80
2023-05-17T08:14:55.900Z,60.90
2023-05-17T08:18:38.967Z,61.10
2023-05-17T08:22:20.900Z,60.00
2023-05-17T08:26:03.218Z,60.00
2023-05-17T08:29:45.202Z,59.30
2023-05-17T08:33:27.514Z,59.00
2023-05-17T08:37:10.115Z,58.60
2023-05-17T08:40:56.263Z,57.60
2023-05-17T08:44:39.043Z,57.30
2023-05-17T08:48:21.249Z,57.10
2023-05-17T08:52:09.812Z,57.40
2023-05-17T08:55:53.681Z,58.50
2023-05-17T08:59:36.001Z,58.80
2023-05-17T09:03:19.409Z,58.10
2023-05-17T09:07:01.923Z,58.50
2023-05-17T09:10:43.800Z,57.90
2023-05-17T09:14:25.717Z,58.70
2023-05-17T09:18:14.735Z,58.50
2023-05-17T09:22:01.370Z,58.60
2023-05-17T09:25:49.933Z,58.30
2023-05-17T09:29:32.859Z,58.70
2023-05-17T09:33:17.724Z,58.50
2023-05-17T09:37:01.061Z,58.20
2023-05-17T09:40:47.546Z,59.90
2023-05-17T09:44:29.420Z,59.40
2023-05-17T09:48:19.162Z,58.10
2023-05-17T09:52:08.366Z,57.60
2023-05-17T09:55:51.863Z,56.30
2023-05-17T09:59:34.131Z,55.60
2023-05-17T10:03:16.183Z,53.40
2023-05-17T10:07:00.383Z,53.50
2023-05-17T10:10:44.173Z,51.30
2023-05-17T10:14:33.834Z,51.40
2023-05-17T10:18:17.590Z,49.90
2023-05-17T10:22:11.496Z,50.00
2023-05-17T10:26:03.210Z,48.80
2023-05-17T10:29:48.438Z,48.70
2023-05-17T10:33:33.373Z,48.40
2023-05-17T10:37:17.069Z,46.70
2023-05-17T10:41:00.465Z,45.70
2023-05-17T10:44:43.717Z,45.50
2023-05-17T10:48:29.074Z,46.10
2023-05-17T10:52:17.139Z,46.00
2023-05-17T10:55:59.323Z,45.70
2023-05-17T10:59:59.391Z,43.50
2023-05-17T11:03:42.743Z,44.20
2023-05-17T11:07:32.175Z,42.40
2023-05-17T11:11:18.502Z,41.60
2023-05-17T11:15:01.084Z,41.30
2023-05-17T11:18:54.975Z,38.90
2023-05-17T11:23:00.941Z,39.90
2023-05-17T11:26:45.915Z,41.10
2023-05-17T11:30:30.666Z,40.60
2023-05-17T11:34:13.464Z,40.00
2023-05-17T11:38:15.752Z,38.40
2023-05-17T11:41:57.932Z,41.10
2023-05-17T11:45:45.263Z,38.70
2023-05-17T11:49:35.569Z,39.50
2023-05-17T11:53:18.884Z,39.50
2023-05-17T11:57:02.918Z,39.20
2023-05-17T12:00:45.460Z,39.10
2023-05-17T12:04:28.024Z,38.80
2023-05-17T12:08:10.318Z,38.10
2023-05-17T12:11:52.300Z,38.30
2023-05-17T12:15:34.545Z,38.40
2023-05-17T12:19:21.180Z,37.30
2023-05-17T12:23:03.221Z,37.50
2023-05-17T12:26:46.458Z,37.20
2023-05-17T12:30:28.687Z,37.30
2023-05-17T12:34:14.412Z,37.40
2023-05-17T12:37:56.437Z,37.50
2023-05-17T12:41:39.327Z,37.50
2023-05-17T12:45:21.526Z,39.40
2023-05-17T12:49:08.461Z,40.10
2023-05-17T12:52:50.580Z,41.50
2023-05-17T12:56:33.157Z,39.50
2023-05-17T13:00:15.684Z,38.60
2023-05-17T13:03:57.635Z,39.70
2023-05-17T13:07:39.810Z,39.80
2023-05-17T13:11:26.168Z,39.00
2023-05-17T13:15:08.418Z,37.60
2023-05-17T13:18:52.073Z,36.50
2023-05-17T13:22:34.139Z,36.20
2023-05-17T13:26:17.514Z,35.70
2023-05-17T13:29:59.425Z,34.40
2023-05-17T13:33:41.646Z,32.80
2023-05-17T13:37:23.584Z,33.90
2023-05-17T13:41:09.400Z,34.20
2023-05-17T13:44:51.553Z,35.50
2023-05-17T13:48:33.505Z,36.60
2023-05-17T13:52:18.566Z,37.70
2023-05-17T13:56:00.695Z,38.00
2023-05-17T13:59:45.865Z,37.30
2023-05-17T14:03:27.999Z,36.30
2023-05-17T14:07:09.909Z,36.30
2023-05-17T14:10:51.906Z,36.80
2023-05-17T14:14:33.839Z,37.70
2023-05-17T14:18:16.138Z,38.70
2023-05-17T14:21:58.292Z,39.20
2023-05-17T14:25:40.342Z,39.80
2023-05-17T14:29:22.222Z,40.60
2023-05-17T14:33:04.252Z,38.60
2023-05-17T14:36:46.264Z,40.50
2023-05-17T14:40:28.402Z,41.90
2023-05-17T14:44:10.495Z,42.40
2023-05-17T14:47:52.877Z,42.50
2023-05-17T14:51:34.831Z,43.10
2023-05-17T14:55:17.081Z,43.20
2023-05-17T14:58:59.983Z,43.30
2023-05-17T15:02:42.295Z,43.70
2023-05-17T15:06:25.663Z,44.40
2023-05-17T15:10:08.866Z,44.40
2023-05-17T15:13:50.838Z,43.90
2023-05-17T15:17:32.952Z,43.20
2023-05-17T15:21:15.178Z,44.10
2023-05-17T15:24:58.423Z,44.90
2023-05-17T15:28:40.579Z,43.60
2023-05-17T15:32:22.448Z,44.20
2023-05-17T15:36:04.913Z,43.90
2023-05-17T15:39:47.730Z,43.50
2023-05-17T15:43:30.466Z,44.00
2023-05-17T15:47:12.358Z,44.30
2023-05-17T15:50:54.972Z,43.80
2023-05-17T15:54:36.863Z,43.30
2023-05-17T15:58:19.580Z,42.80
2023-05-17T16:02:01.447Z,42.60
2023-05-17T16:05:43.583Z,43.60
2023-05-17T16:09:25.926Z,43.70
2023-05-17T16:13:07.844Z,43.80
2023-05-17T16:16:49.816Z,43.90
2023-05-17T16:20:32.355Z,44.10
2023-05-17T16:24:14.217Z,44.50
2023-05-17T16:27:57.264Z,44.30
2023-05-17T16:31:39.130Z,44.90
2023-05-17T16:35:22.806Z,45.30
2023-05-17T16:39:05.476Z,45.70
2023-05-17T16:42:49.303Z,46.50
2023-05-17T16:46:31.261Z,45.70
2023-05-17T16:50:13.705Z,45.60
2023-05-17T16:53:55.618Z,45.90
2023-05-17T16:57:37.529Z,45.70
2023-05-17T17:01:19.519Z,45.10
2023-05-17T17:05:01.448Z,45.50
2023-05-17T17:08:43.291Z,45.60
2023-05-17T17:12:26.219Z,45.20
2023-05-17T17:16:08.236Z,45.30
2023-05-17T17:19:50.159Z,45.80
2023-05-17T17:23:32.428Z,44.40
2023-05-17T17:27:14.363Z,44.10
2023-05-17T17:30:56.313Z,44.00
2023-05-17T17:34:38.854Z,44.40
2023-05-17T17:38:20.709Z,44.90
2023-05-17T17:42:02.618Z,45.30
2023-05-17T17:45:46.402Z,45.80
2023-05-17T17:49:28.344Z,45.60
2023-05-17T17:53:10.388Z,46.30
2023-05-17T17:56:52.507Z,46.70
2023-05-17T18:00:34.380Z,47.10
2023-05-17T18:04:16.376Z,48.60
2023-05-17T18:07:58.445Z,49.30
2023-05-17T18:11:40.713Z,49.50
2023-05-17T18:15:22.800Z,50.00
2023-05-17T18:19:04.760Z,50.00
2023-05-17T18:22:47.397Z,50.50
2023-05-17T18:26:29.294Z,50.50
2023-05-17T18:30:11.806Z,51.00
2023-05-17T18:33:56.352Z,51.60
2023-05-17T18:37:39.112Z,51.30
2023-05-17T18:41:21.299Z,51.70
2023-05-17T18:45:03.307Z,52.10
2023-05-17T18:48:45.231Z,53.00
2023-05-17T18:52:27.054Z,52.50
2023-05-17T18:56:09.385Z,53.10
2023-05-17T18:59:52.021Z,53.30
2023-05-17T19:03:34.711Z,53.30
2023-05-17T19:07:17.229Z,53.20
2023-05-17T19:11:03.606Z,53.40
2023-05-17T19:14:45.519Z,53.70
2023-05-17T19:18:27.652Z,53.70
2023-05-17T19:22:11.066Z,53.80
2023-05-17T19:25:55.449Z,53.90
2023-05-17T19:29:37.695Z,54.30
2023-05-17T19:33:19.683Z,54.50
2023-05-17T19:37:02.147Z,54.90
2023-05-17T19:40:44.116Z,55.20
2023-05-17T19:44:26.029Z,55.70
2023-05-17T19:48:08.244Z,56.00
2023-05-17T19:51:50.467Z,56.20
2023-05-17T19:55:34.112Z,56.40
2023-05-17T19:59:15.924Z,56.70
2023-05-17T20:02:57.898Z,56.80
2023-05-17T20:06:40.266Z,57.40
2023-05-17T20:10:22.442Z,58.20
2023-05-17T20:14:05.109Z,57.80
2023-05-17T20:17:47.840Z,58.00
2023-05-17T20:21:31.777Z,58.20
2023-05-17T20:25:14.489Z,59.40
2023-05-17T20:28:57.290Z,58.90
2023-05-17T20:32:39.799Z,59.20
2023-05-17T20:36:22.208Z,59.60
2023-05-17T20:40:05.335Z,59.80
2023-05-17T20:43:49.932Z,60.10
2023-05-17T20:47:32.671Z,60.20
2023-05-17T20:51:15.868Z,60.10
2023-05-17T20:54:58.470Z,60.40
2023-05-17T20:58:40.761Z,60.50
2023-05-17T21:02:25.024Z,60.60
2023-05-17T21:06:07.173Z,61.10
2023-05-17T21:09:49.048Z,61.20
2023-05-17T21:13:31.226Z,61.40
2023-05-17T21:17:13.229Z,62.20
2023-05-17T21:20:55.542Z,62.50
2023-05-17T21:24:37.589Z,63.00
2023-05-17T21:28:19.482Z,63.00
2023-05-17T21:32:01.521Z,63.60
2023-05-17T21:35:43.474Z,63.90
2023-05-17T21:39:25.422Z,63.80
2023-05-17T21:43:07.656Z,64.20
2023-05-17T21:46:49.584Z,64.40
2023-05-17T21:50:31.860Z,64.40
2023-05-17T21:54:14.049Z,64.80
2023-05-17T21:57:56.014Z,65.30
2023-05-17T22:01:38.164Z,65.90
2023-05-17T22:05:20.084Z,66.10
2023-05-17T22:09:02.144Z,66.60
2023-05-17T22:12:44.098Z,66.70
2023-05-17T22:16:26.156Z,67.00
2023-05-17T22:20:11.011Z,67.40
2023-05-17T22:23:53.049Z,67.50
2023-05-17T22:27:34.983Z,67.60
2023-05-17T22:31:18.523Z,67.60
2023-05-17T22:35:00.396Z,67.90
2023-05-17T22:38:42.841Z,68.10
2023-05-17T22:42:24.664Z,68.40
2023-05-17T22:46:07.045Z,68.60
2023-05-17T22:49:52.603Z,69.20
2023-05-17T22:53:34.561Z,69.40
2023-05-17T22:57:16.505Z,69.80
2023-05-17T23:00:58.394Z,70.10
2023-05-17T23:04:40.527Z,70.50
2023-05-17T23:08:23.540Z,70.70
2023-05-17T23:12:06.447Z,70.90
2023-05-17T23:15:48.399Z,71.00
2023-05-17T23:19:31.023Z,71.20
2023-05-17T23:23:15.998Z,71.40
2023-05-17T23:26:58.954Z,71.50
2023-05-17T23:30:41.136Z,71.70
2023-05-17T23:34:23.773Z,71.90
2023-05-17T23:38:07.189Z,72.00
2023-05-17T23:41:51.753Z,72.30
2023-05-17T23:45:33.757Z,72.50
2023-05-17T23:49:16.543Z,72.80
2023-05-17T23:52:58.407Z,72.90
2023-05-17T23:56:40.233Z,73.00
